sensor_id;sensor_type;location;lat;lon;timestamp;pressure;altitude;pressure_sealevel;temperature;humidity
18436;BME280;9346;52.006;4.720;2023-07-20T00:02:03;101385.31;;;17.85;100.00
18436;BME280;9346;52.006;4.720;2023-07-20T00:04:33;101389.63;;;17.77;100.00
18436;BME280;9346;52.006;4.720;2023-07-20T00:07:00;101389.13;;;17.75;100.00
18436;BME280;9346;52.006;4.720;2023-07-20T00:09:27;101387.78;;;17.72;100.00
18436;BME280;9346;52.006;4.720;2023-07-20T00:11:54;101385.81;;;17.73;100.00
18436;BME280;9346;52.006;4.720;2023-07-20T00:14:23;101385.53;;;17.74;100.00
18436;BME280;9346;52.006;4.720;2023-07-20T00:16:51;101396.34;;;17.76;100.00
18436;BME280;9346;52.006;4.720;2023-07-20T00:19:21;101398.31;;;17.75;100.00
18436;BME280;9346;52.006;4.720;2023-07-20T00:21:49;101390.56;;;17.72;100.00
18436;BME280;9346;52.006;4.720;2023-07-20T00:24:16;101391.78;;;17.66;100.00
18436;BME280;9346;52.006;4.720;2023-07-20T00:26:43;101394.09;;;17.64;100.00
18436;BME280;9346;52.006;4.720;2023-07-20T00:29:11;101392.72;;;17.62;100.00
18436;BME280;9346;52.006;4.720;2023-07-20T00:31:40;101397.78;;;17.60;100.00
18436;BME280;9346;52.006;4.720;2023-07-20T00:34:08;101388.59;;;17.59;100.00
18436;BME280;9346;52.006;4.720;2023-07-20T00:36:36;101386.41;;;17.56;100.00
18436;BME280;9346;52.006;4.720;2023-07-20T00:39:02;101400.47;;;17.51;100.00
18436;BME280;9346;52.006;4.720;2023-07-20T00:44:51;101397.75;;;17.46;100.00
18436;BME280;9346;52.006;4.720;2023-07-20T00:47:20;101398.38;;;17.43;100.00
18436;BME280;9346;52.006;4.720;2023-07-20T00:49:47;101395.03;;;17.41;100.00
18436;BME280;9346;52.006;4.720;2023-07-20T00:52:14;101395.97;;;17.37;100.00
18436;BME280;9346;52.006;4.720;2023-07-20T00:54:41;101391.81;;;17.34;100.00
18436;BME280;9346;52.006;4.720;2023-07-20T00:57:09;101395.19;;;17.31;100.00
18436;BME280;9346;52.006;4.720;2023-07-20T00:59:37;101391.91;;;17.29;100.00
18436;BME280;9346;52.006;4.720;2023-07-20T01:02:04;101392.53;;;17.26;100.00
18436;BME280;9346;52.006;4.720;2023-07-20T01:04:33;101385.91;;;17.22;100.00
18436;BME280;9346;52.006;4.720;2023-07-20T01:07:06;101395.91;;;17.23;100.00
18436;BME280;9346;52.006;4.720;2023-07-20T01:09:44;101394.28;;;17.22;100.00
18436;BME280;9346;52.006;4.720;2023-07-20T01:12:20;101392.09;;;17.19;100.00
18436;BME280;9346;52.006;4.720;2023-07-20T01:14:49;101389.63;;;17.18;100.00
18436;BME280;9346;52.006;4.720;2023-07-20T01:17:16;101392.41;;;17.18;100.00
18436;BME280;9346;52.006;4.720;2023-07-20T01:19:45;101388.78;;;17.17;100.00
18436;BME280;9346;52.006;4.720;2023-07-20T01:22:25;101391.06;;;17.15;100.00
18436;BME280;9346;52.006;4.720;2023-07-20T01:25:11;101396.41;;;17.12;100.00
18436;BME280;9346;52.006;4.720;2023-07-20T01:30:55;101408.13;;;17.09;100.00
18436;BME280;9346;52.006;4.720;2023-07-20T01:33:27;101399.78;;;17.09;100.00
18436;BME280;9346;52.006;4.720;2023-07-20T01:35:58;101404.53;;;17.08;100.00
18436;BME280;9346;52.006;4.720;2023-07-20T01:38:26;101409.28;;;17.08;100.00
18436;BME280;9346;52.006;4.720;2023-07-20T01:40:53;101406.78;;;17.06;100.00
18436;BME280;9346;52.006;4.720;2023-07-20T01:43:21;101404.00;;;17.06;100.00
18436;BME280;9346;52.006;4.720;2023-07-20T01:45:48;101405.44;;;17.04;100.00
18436;BME280;9346;52.006;4.720;2023-07-20T01:48:15;101406.88;;;17.01;100.00
18436;BME280;9346;52.006;4.720;2023-07-20T01:50:44;101402.75;;;16.99;100.00
18436;BME280;9346;52.006;4.720;2023-07-20T01:53:11;101403.34;;;16.96;100.00
18436;BME280;9346;52.006;4.720;2023-07-20T01:55:38;101412.59;;;16.91;100.00
18436;BME280;9346;52.006;4.720;2023-07-20T01:58:05;101419.31;;;16.90;100.00
18436;BME280;9346;52.006;4.720;2023-07-20T02:00:32;101419.81;;;16.92;100.00
18436;BME280;9346;52.006;4.720;2023-07-20T02:02:59;101419.81;;;16.92;100.00
18436;BME280;9346;52.006;4.720;2023-07-20T02:05:27;101414.84;;;16.89;100.00
18436;BME280;9346;52.006;4.720;2023-07-20T02:07:55;101412.16;;;16.84;100.00
18436;BME280;9346;52.006;4.720;2023-07-20T02:10:23;101418.31;;;16.81;100.00
18436;BME280;9346;52.006;4.720;2023-07-20T02:12:51;101412.75;;;16.81;100.00
18436;BME280;9346;52.006;4.720;2023-07-20T02:15:18;101416.69;;;16.80;100.00
18436;BME280;9346;52.006;4.720;2023-07-20T02:17:44;101411.94;;;16.81;100.00
18436;BME280;9346;52.006;4.720;2023-07-20T02:20:12;101424.72;;;16.82;100.00
18436;BME280;9346;52.006;4.720;2023-07-20T02:22:39;101426.66;;;16.81;100.00
18436;BME280;9346;52.006;4.720;2023-07-20T02:25:09;101422.75;;;16.82;100.00
18436;BME280;9346;52.006;4.720;2023-07-20T02:27:36;101415.25;;;16.83;100.00
18436;BME280;9346;52.006;4.720;2023-07-20T02:30:05;101419.66;;;16.84;100.00
18436;BME280;9346;52.006;4.720;2023-07-20T02:32:33;101421.66;;;16.83;100.00
18436;BME280;9346;52.006;4.720;2023-07-20T02:35:01;101418.31;;;16.81;100.00
18436;BME280;9346;52.006;4.720;2023-07-20T02:37:28;101420.28;;;16.81;100.00
18436;BME280;9346;52.006;4.720;2023-07-20T02:39:56;101415.00;;;16.79;100.00
18436;BME280;9346;52.006;4.720;2023-07-20T02:42:24;101411.72;;;16.77;100.00
18436;BME280;9346;52.006;4.720;2023-07-20T02:44:51;101418.38;;;16.76;100.00
18436;BME280;9346;52.006;4.720;2023-07-20T02:47:18;101416.75;;;16.75;100.00
18436;BME280;9346;52.006;4.720;2023-07-20T02:49:45;101418.69;;;16.75;100.00
18436;BME280;9346;52.006;4.720;2023-07-20T02:52:12;101422.59;;;16.74;100.00
18436;BME280;9346;52.006;4.720;2023-07-20T02:54:39;101422.06;;;16.72;100.00
18436;BME280;9346;52.006;4.720;2023-07-20T02:57:06;101426.81;;;16.71;100.00
18436;BME280;9346;52.006;4.720;2023-07-20T02:59:35;101424.66;;;16.68;100.00
18436;BME280;9346;52.006;4.720;2023-07-20T03:02:02;101426.88;;;16.66;100.00
18436;BME280;9346;52.006;4.720;2023-07-20T03:04:29;101434.44;;;16.66;100.00
18436;BME280;9346;52.006;4.720;2023-07-20T03:06:56;101438.63;;;16.63;100.00
18436;BME280;9346;52.006;4.720;2023-07-20T03:09:25;101442.22;;;16.64;100.00
18436;BME280;9346;52.006;4.720;2023-07-20T03:11:52;101444.47;;;16.62;100.00
18436;BME280;9346;52.006;4.720;2023-07-20T03:14:19;101442.81;;;16.61;100.00
18436;BME280;9346;52.006;4.720;2023-07-20T03:16:47;101443.13;;;16.59;100.00
18436;BME280;9346;52.006;4.720;2023-07-20T03:19:14;101443.72;;;16.56;100.00
18436;BME280;9346;52.006;4.720;2023-07-20T03:21:41;101447.63;;;16.55;100.00
18436;BME280;9346;52.006;4.720;2023-07-20T03:24:08;101451.03;;;16.52;100.00
18436;BME280;9346;52.006;4.720;2023-07-20T03:26:35;101447.19;;;16.48;100.00
18436;BME280;9346;52.006;4.720;2023-07-20T03:29:04;101449.44;;;16.46;100.00
18436;BME280;9346;52.006;4.720;2023-07-20T03:31:31;101450.03;;;16.43;100.00
18436;BME280;9346;52.006;4.720;2023-07-20T03:34:00;101445.88;;;16.41;100.00
18436;BME280;9346;52.006;4.720;2023-07-20T03:36:27;101442.53;;;16.39;100.00
18436;BME280;9346;52.006;4.720;2023-07-20T03:38:54;101448.41;;;16.37;100.00
18436;BME280;9346;52.006;4.720;2023-07-20T03:41:21;101451.78;;;16.34;100.00
18436;BME280;9346;52.006;4.720;2023-07-20T03:43:48;101451.78;;;16.34;100.00
18436;BME280;9346;52.006;4.720;2023-07-20T03:46:17;101446.50;;;16.33;100.00
18436;BME280;9346;52.006;4.720;2023-07-20T03:48:44;101447.66;;;16.32;100.00
18436;BME280;9346;52.006;4.720;2023-07-20T03:51:13;101450.72;;;16.30;100.00
18436;BME280;9346;52.006;4.720;2023-07-20T03:53:40;101451.56;;;16.31;100.00
18436;BME280;9346;52.006;4.720;2023-07-20T03:56:07;101455.44;;;16.30;100.00
18436;BME280;9346;52.006;4.720;2023-07-20T03:58:34;101454.63;;;16.29;100.00
18436;BME280;9346;52.006;4.720;2023-07-20T04:01:02;101446.28;;;16.29;100.00
18436;BME280;9346;52.006;4.720;2023-07-20T04:03:29;101444.94;;;16.27;100.00
18436;BME280;9346;52.006;4.720;2023-07-20T04:05:56;101442.16;;;16.27;100.00
18436;BME280;9346;52.006;4.720;2023-07-20T04:08:25;101446.59;;;16.28;100.00
18436;BME280;9346;52.006;4.720;2023-07-20T04:10:52;101440.19;;;16.27;100.00
18436;BME280;9346;52.006;4.720;2023-07-20T04:13:19;101451.00;;;16.29;100.00
18436;BME280;9346;52.006;4.720;2023-07-20T04:15:48;101453.78;;;16.29;100.00
18436;BME280;9346;52.006;4.720;2023-07-20T04:18:15;101448.53;;;16.27;100.00
18436;BME280;9346;52.006;4.720;2023-07-20T04:20:43;101453.88;;;16.24;100.00
18436;BME280;9346;52.006;4.720;2023-07-20T04:23:09;101454.16;;;16.22;100.00
18436;BME280;9346;52.006;4.720;2023-07-20T04:25:39;101465.59;;;16.21;100.00
18436;BME280;9346;52.006;4.720;2023-07-20T04:28:06;101463.09;;;16.19;100.00
18436;BME280;9346;52.006;4.720;2023-07-20T04:30:36;101467.81;;;16.19;100.00
18436;BME280;9346;52.006;4.720;2023-07-20T04:33:04;101473.38;;;16.19;100.00
18436;BME280;9346;52.006;4.720;2023-07-20T04:35:48;101470.31;;;16.20;100.00
18436;BME280;9346;52.006;4.720;2023-07-20T04:38:16;101475.88;;;16.20;100.00
18436;BME280;9346;52.006;4.720;2023-07-20T04:40:47;101481.44;;;16.20;100.00
18436;BME280;9346;52.006;4.720;2023-07-20T04:43:14;101473.94;;;16.21;100.00
18436;BME280;9346;52.006;4.720;2023-07-20T04:45:43;101474.72;;;16.21;100.00
18436;BME280;9346;52.006;4.720;2023-07-20T04:48:11;101481.13;;;16.22;100.00
18436;BME280;9346;52.006;4.720;2023-07-20T04:50:40;101478.91;;;16.24;100.00
18436;BME280;9346;52.006;4.720;2023-07-20T04:53:08;101475.53;;;16.27;100.00
18436;BME280;9346;52.006;4.720;2023-07-20T04:55:36;101482.44;;;16.29;100.00
18436;BME280;9346;52.006;4.720;2023-07-20T04:58:05;101481.53;;;16.34;100.00
18436;BME280;9346;52.006;4.720;2023-07-20T05:00:33;101482.91;;;16.36;100.00
18436;BME280;9346;52.006;4.720;2023-07-20T05:03:00;101477.59;;;16.40;100.00
18436;BME280;9346;52.006;4.720;2023-07-20T05:05:27;101481.72;;;16.42;100.00
18436;BME280;9346;52.006;4.720;2023-07-20T05:07:54;101481.44;;;16.44;100.00
18436;BME280;9346;52.006;4.720;2023-07-20T05:10:21;101484.44;;;16.47;100.00
18436;BME280;9346;52.006;4.720;2023-07-20T05:12:48;101481.06;;;16.50;100.00
18436;BME280;9346;52.006;4.720;2023-07-20T05:15:17;101482.44;;;16.53;100.00
18436;BME280;9346;52.006;4.720;2023-07-20T05:17:44;101486.03;;;16.53;100.00
18436;BME280;9346;52.006;4.720;2023-07-20T05:20:10;101492.13;;;16.55;100.00
18436;BME280;9346;52.006;4.720;2023-07-20T05:22:38;101491.25;;;16.60;100.00
18436;BME280;9346;52.006;4.720;2023-07-20T05:25:06;101498.69;;;16.64;100.00
18436;BME280;9346;52.006;4.720;2023-07-20T05:27:35;101494.72;;;16.70;100.00
18436;BME280;9346;52.006;4.720;2023-07-20T05:30:03;101496.28;;;16.76;100.00
18436;BME280;9346;52.006;4.720;2023-07-20T05:32:32;101504.88;;;16.80;100.00
18436;BME280;9346;52.006;4.720;2023-07-20T05:34:59;101505.41;;;16.82;100.00
18436;BME280;9346;52.006;4.720;2023-07-20T05:37:26;101504.47;;;16.86;100.00
18436;BME280;9346;52.006;4.720;2023-07-20T05:39:53;101498.63;;;16.88;100.00
18436;BME280;9346;52.006;4.720;2023-07-20T05:42:21;101498.91;;;16.86;100.00
18436;BME280;9346;52.006;4.720;2023-07-20T05:44:48;101494.50;;;16.85;100.00
18436;BME280;9346;52.006;4.720;2023-07-20T05:47:18;101487.78;;;16.86;100.00
18436;BME280;9346;52.006;4.720;2023-07-20T05:49:46;101487.78;;;16.86;100.00
18436;BME280;9346;52.006;4.720;2023-07-20T05:52:13;101490.50;;;16.91;100.00
18436;BME280;9346;52.006;4.720;2023-07-20T05:54:41;101488.28;;;16.93;100.00
18436;BME280;9346;52.006;4.720;2023-07-20T05:57:07;101485.47;;;16.93;100.00
18436;BME280;9346;52.006;4.720;2023-07-20T05:59:35;101491.56;;;16.95;100.00
18436;BME280;9346;52.006;4.720;2023-07-20T06:02:04;101487.38;;;16.98;100.00
18436;BME280;9346;52.006;4.720;2023-07-20T06:04:31;101489.75;;;17.04;100.00
18436;BME280;9346;52.006;4.720;2023-07-20T06:06:59;101482.69;;;17.12;100.00
18436;BME280;9346;52.006;4.720;2023-07-20T06:09:26;101480.94;;;17.16;100.00
18436;BME280;9346;52.006;4.720;2023-07-20T06:11:53;101480.34;;;17.19;100.00
18436;BME280;9346;52.006;4.720;2023-07-20T06:14:20;101479.66;;;17.27;100.00
18436;BME280;9346;52.006;4.720;2023-07-20T06:16:47;101484.84;;;17.33;100.00
18436;BME280;9346;52.006;4.720;2023-07-20T06:19:14;101491.41;;;17.42;100.00
18436;BME280;9346;52.006;4.720;2023-07-20T06:21:43;101481.53;;;17.50;100.00
18436;BME280;9346;52.006;4.720;2023-07-20T06:24:12;101482.94;;;17.66;100.00
18436;BME280;9346;52.006;4.720;2023-07-20T06:26:39;101489.03;;;17.82;100.00
18436;BME280;9346;52.006;4.720;2023-07-20T06:29:07;101483.88;;;17.89;100.00
18436;BME280;9346;52.006;4.720;2023-07-20T06:31:34;101489.88;;;17.96;100.00
18436;BME280;9346;52.006;4.720;2023-07-20T06:34:02;101481.44;;;18.01;100.00
18436;BME280;9346;52.006;4.720;2023-07-20T06:36:29;101484.53;;;18.13;100.00
18436;BME280;9346;52.006;4.720;2023-07-20T06:38:57;101482.28;;;18.28;100.00
18436;BME280;9346;52.006;4.720;2023-07-20T06:41:27;101485.47;;;18.35;100.00
18436;BME280;9346;52.006;4.720;2023-07-20T06:43:54;101489.09;;;18.36;100.00
18436;BME280;9346;52.006;4.720;2023-07-20T06:46:24;101488.47;;;18.25;100.00
18436;BME280;9346;52.006;4.720;2023-07-20T06:48:51;101491.03;;;18.22;100.00
18436;BME280;9346;52.006;4.720;2023-07-20T06:51:18;101491.34;;;18.20;100.00
18436;BME280;9346;52.006;4.720;2023-07-20T06:53:45;101491.53;;;18.10;100.00
18436;BME280;9346;52.006;4.720;2023-07-20T06:56:13;101490.63;;;18.15;100.00
18436;BME280;9346;52.006;4.720;2023-07-20T06:58:42;101492.59;;;18.28;100.00
18436;BME280;9346;52.006;4.720;2023-07-20T07:01:09;101495.94;;;18.43;100.00
18436;BME280;9346;52.006;4.720;2023-07-20T07:03:35;101496.03;;;18.52;100.00
18436;BME280;9346;52.006;4.720;2023-07-20T07:06:04;101489.09;;;18.63;100.00
18436;BME280;9346;52.006;4.720;2023-07-20T07:08:31;101491.16;;;18.71;100.00
18436;BME280;9346;52.006;4.720;2023-07-20T07:10:58;101498.16;;;18.82;100.00
18436;BME280;9346;52.006;4.720;2023-07-20T07:13:25;101499.47;;;18.98;100.00
18436;BME280;9346;52.006;4.720;2023-07-20T07:15:53;101499.75;;;19.10;100.00
18436;BME280;9346;52.006;4.720;2023-07-20T07:18:20;101506.66;;;19.26;100.00
18436;BME280;9346;52.006;4.720;2023-07-20T07:20:52;101504.41;;;19.36;100.00
18436;BME280;9346;52.006;4.720;2023-07-20T07:23:26;101494.34;;;19.49;100.00
18436;BME280;9346;52.006;4.720;2023-07-20T07:25:53;101494.03;;;19.50;100.00
18436;BME280;9346;52.006;4.720;2023-07-20T07:28:21;101499.03;;;19.62;100.00
18436;BME280;9346;52.006;4.720;2023-07-20T07:30:48;101496.22;;;19.62;100.00
18436;BME280;9346;52.006;4.720;2023-07-20T07:33:17;101494.28;;;19.62;100.00
18436;BME280;9346;52.006;4.720;2023-07-20T07:35:44;101495.88;;;19.55;100.00
18436;BME280;9346;52.006;4.720;2023-07-20T07:38:11;101491.97;;;19.42;100.00
18436;BME280;9346;52.006;4.720;2023-07-20T07:40:38;101496.38;;;19.35;100.00
18436;BME280;9346;52.006;4.720;2023-07-20T07:43:05;101503.41;;;19.32;100.00
18436;BME280;9346;52.006;4.720;2023-07-20T07:45:35;101493.91;;;19.20;100.00
18436;BME280;9346;52.006;4.720;2023-07-20T07:48:03;101486.47;;;19.15;100.00
18436;BME280;9346;52.006;4.720;2023-07-20T07:50:33;101498.06;;;19.09;100.00
18436;BME280;9346;52.006;4.720;2023-07-20T07:53:00;101491.53;;;19.13;100.00
18436;BME280;9346;52.006;4.720;2023-07-20T07:55:27;101492.97;;;19.24;100.00
18436;BME280;9346;52.006;4.720;2023-07-20T07:57:54;101492.69;;;19.26;100.00
18436;BME280;9346;52.006;4.720;2023-07-20T08:00:21;101497.41;;;19.25;100.00
18436;BME280;9346;52.006;4.720;2023-07-20T08:02:50;101496.38;;;19.21;100.00
18436;BME280;9346;52.006;4.720;2023-07-20T08:05:17;101497.84;;;19.19;100.00
18436;BME280;9346;52.006;4.720;2023-07-20T08:07:46;101501.56;;;19.28;100.00
18436;BME280;9346;52.006;4.720;2023-07-20T08:10:13;101497.50;;;19.34;100.00
18436;BME280;9346;52.006;4.720;2023-07-20T08:12:40;101503.47;;;19.41;100.00
18436;BME280;9346;52.006;4.720;2023-07-20T08:15:07;101501.50;;;19.41;100.00
18436;BME280;9346;52.006;4.720;2023-07-20T08:17:34;101504.81;;;19.43;100.00
18436;BME280;9346;52.006;4.720;2023-07-20T08:20:02;101501.72;;;19.45;100.00
18436;BME280;9346;52.006;4.720;2023-07-20T08:22:29;101513.56;;;19.50;100.00
18436;BME280;9346;52.006;4.720;2023-07-20T08:24:58;101502.72;;;19.49;100.00
18436;BME280;9346;52.006;4.720;2023-07-20T08:27:25;101498.06;;;19.44;100.00
18436;BME280;9346;52.006;4.720;2023-07-20T08:29:52;101503.34;;;19.46;100.00
18436;BME280;9346;52.006;4.720;2023-07-20T08:32:19;101501.72;;;19.45;100.00
18436;BME280;9346;52.006;4.720;2023-07-20T08:34:46;101515.38;;;19.46;100.00
18436;BME280;9346;52.006;4.720;2023-07-20T08:37:13;101506.34;;;19.49;100.00
18436;BME280;9346;52.006;4.720;2023-07-20T08:39:40;101498.66;;;19.55;100.00
18436;BME280;9346;52.006;4.720;2023-07-20T08:42:12;101505.25;;;19.59;100.00
18436;BME280;9346;52.006;4.720;2023-07-20T08:44:41;101506.25;;;19.63;100.00
18436;BME280;9346;52.006;4.720;2023-07-20T08:47:12;101506.41;;;19.58;100.00
18436;BME280;9346;52.006;4.720;2023-07-20T08:49:40;101504.25;;;19.55;100.00
18436;BME280;9346;52.006;4.720;2023-07-20T08:52:08;101505.19;;;19.50;100.00
18436;BME280;9346;52.006;4.720;2023-07-20T08:54:35;101507.47;;;19.48;100.00
18436;BME280;9346;52.006;4.720;2023-07-20T08:57:04;101506.66;;;19.48;100.00
18436;BME280;9346;52.006;4.720;2023-07-20T08:59:43;101506.34;;;19.49;100.00
18436;BME280;9346;52.006;4.720;2023-07-20T09:02:15;101504.34;;;19.50;100.00
18436;BME280;9346;52.006;4.720;2023-07-20T09:04:44;101501.44;;;19.55;100.00
18436;BME280;9346;52.006;4.720;2023-07-20T09:07:11;101504.72;;;19.57;100.00
18436;BME280;9346;52.006;4.720;2023-07-20T09:09:40;101503.47;;;19.63;100.00
18436;BME280;9346;52.006;4.720;2023-07-20T09:12:13;101503.66;;;19.66;100.00
18436;BME280;9346;52.006;4.720;2023-07-20T09:14:44;101501.19;;;19.65;100.00
18436;BME280;9346;52.006;4.720;2023-07-20T09:17:13;101502.34;;;19.64;100.00
18436;BME280;9346;52.006;4.720;2023-07-20T09:19:45;101507.41;;;19.62;100.00
18436;BME280;9346;52.006;4.720;2023-07-20T09:22:12;101498.50;;;19.60;100.00
18436;BME280;9346;52.006;4.720;2023-07-20T09:24:40;101500.81;;;19.58;100.00
18436;BME280;9346;52.006;4.720;2023-07-20T09:27:08;101494.28;;;19.62;100.00
18436;BME280;9346;52.006;4.720;2023-07-20T09:29:49;101490.19;;;19.68;100.00
18436;BME280;9346;52.006;4.720;2023-07-20T09:32:18;101500.22;;;19.69;100.00
18436;BME280;9346;52.006;4.720;2023-07-20T09:34:46;101489.22;;;19.73;100.00
18436;BME280;9346;52.006;4.720;2023-07-20T09:37:13;101494.69;;;19.78;100.00
18436;BME280;9346;52.006;4.720;2023-07-20T09:39:44;101494.19;;;19.76;100.00
18436;BME280;9346;52.006;4.720;2023-07-20T09:42:11;101488.59;;;19.76;100.00
18436;BME280;9346;52.006;4.720;2023-07-20T09:44:38;101492.84;;;19.73;100.00
18436;BME280;9346;52.006;4.720;2023-07-20T09:47:09;101488.59;;;19.76;100.00
18436;BME280;9346;52.006;4.720;2023-07-20T09:49:39;101487.47;;;19.77;100.00
18436;BME280;9346;52.006;4.720;2023-07-20T09:52:07;101490.09;;;19.82;100.00
18436;BME280;9346;52.006;4.720;2023-07-20T09:54:37;101490.75;;;19.79;100.00
18436;BME280;9346;52.006;4.720;2023-07-20T09:57:07;101482.03;;;19.80;100.00
18436;BME280;9346;52.006;4.720;2023-07-20T09:59:35;101488.16;;;19.82;100.00
18436;BME280;9346;52.006;4.720;2023-07-20T10:02:05;101486.34;;;19.86;100.00
18436;BME280;9346;52.006;4.720;2023-07-20T10:04:40;101482.41;;;19.87;100.00
18436;BME280;9346;52.006;4.720;2023-07-20T10:07:09;101484.22;;;19.92;100.00
18436;BME280;9346;52.006;4.720;2023-07-20T10:09:39;101491.97;;;19.95;100.00
18436;BME280;9346;52.006;4.720;2023-07-20T10:12:08;101483.94;;;20.02;100.00
18436;BME280;9346;52.006;4.720;2023-07-20T10:14:40;101484.97;;;20.06;100.00
18436;BME280;9346;52.006;4.720;2023-07-20T10:17:12;101478.72;;;20.09;100.00
18436;BME280;9346;52.006;4.720;2023-07-20T10:19:44;101484.41;;;20.18;100.00
18436;BME280;9346;52.006;4.720;2023-07-20T10:22:27;101477.84;;;20.22;100.00
18436;BME280;9346;52.006;4.720;2023-07-20T10:24:58;101483.28;;;20.27;100.00
18436;BME280;9346;52.006;4.720;2023-07-20T10:27:26;101481.81;;;20.30;100.00
18436;BME280;9346;52.006;4.720;2023-07-20T10:29:54;101473.41;;;20.30;100.00
18436;BME280;9346;52.006;4.720;2023-07-20T10:32:22;101474.25;;;20.30;100.00
18436;BME280;9346;52.006;4.720;2023-07-20T10:34:56;101476.72;;;20.32;100.00
18436;BME280;9346;52.006;4.720;2023-07-20T10:37:54;101477.69;;;20.27;100.00
18436;BME280;9346;52.006;4.720;2023-07-20T10:40:29;101483.09;;;20.24;100.00
18436;BME280;9346;52.006;4.720;2023-07-20T10:43:03;101476.69;;;20.23;100.00
18436;BME280;9346;52.006;4.720;2023-07-20T10:45:38;101473.25;;;20.26;100.00
18436;BME280;9346;52.006;4.720;2023-07-20T10:48:12;101466.50;;;20.27;100.00
18436;BME280;9346;52.006;4.720;2023-07-20T10:50:42;101477.16;;;20.25;100.00
18436;BME280;9346;52.006;4.720;2023-07-20T10:53:11;101472.91;;;20.19;100.00
18436;BME280;9346;52.006;4.720;2023-07-20T10:55:38;101471.22;;;20.18;100.00
18436;BME280;9346;52.006;4.720;2023-07-20T10:58:09;101467.13;;;20.24;100.00
18436;BME280;9346;52.006;4.720;2023-07-20T11:00:37;101464.69;;;20.31;100.00
18436;BME280;9346;52.006;4.720;2023-07-20T11:03:05;101468.66;;;20.30;100.00
18436;BME280;9346;52.006;4.720;2023-07-20T11:05:35;101467.16;;;20.33;100.00
18436;BME280;9346;52.006;4.720;2023-07-20T11:08:07;101462.75;;;20.40;100.00
18436;BME280;9346;52.006;4.720;2023-07-20T11:10:36;101454.69;;;20.47;100.00
18436;BME280;9346;52.006;4.720;2023-07-20T11:13:19;101459.97;;;20.49;100.00
18436;BME280;9346;52.006;4.720;2023-07-20T11:18:34;101450.72;;;20.40;100.00
18436;BME280;9346;52.006;4.720;2023-07-20T11:21:09;101440.22;;;20.37;100.00
18436;BME280;9346;52.006;4.720;2023-07-20T11:23:39;101446.13;;;20.35;100.00
18436;BME280;9346;52.006;4.720;2023-07-20T11:26:07;101447.44;;;20.38;100.00
18436;BME280;9346;52.006;4.720;2023-07-20T11:28:34;101442.19;;;20.45;100.00
18436;BME280;9346;52.006;4.720;2023-07-20T11:31:01;101441.53;;;20.48;100.00
18436;BME280;9346;52.006;4.720;2023-07-20T11:33:28;101448.66;;;20.62;100.00
18436;BME280;9346;52.006;4.720;2023-07-20T11:35:55;101442.72;;;20.72;100.00
18436;BME280;9346;52.006;4.720;2023-07-20T11:38:23;101446.53;;;20.76;100.00
18436;BME280;9346;52.006;4.720;2023-07-20T11:40:52;101444.22;;;20.78;100.00
18436;BME280;9346;52.006;4.720;2023-07-20T11:43:20;101438.13;;;20.76;100.00
18436;BME280;9346;52.006;4.720;2023-07-20T11:45:48;101435.19;;;20.81;100.00
18436;BME280;9346;52.006;4.720;2023-07-20T11:48:16;101436.00;;;20.90;100.00
18436;BME280;9346;52.006;4.720;2023-07-20T11:50:43;101435.84;;;21.12;100.00
18436;BME280;9346;52.006;4.720;2023-07-20T11:53:10;101441.63;;;21.24;100.00
18436;BME280;9346;52.006;4.720;2023-07-20T11:55:38;101435.16;;;21.49;100.00
18436;BME280;9346;52.006;4.720;2023-07-20T11:58:09;101430.16;;;21.63;100.00
18436;BME280;9346;52.006;4.720;2023-07-20T12:00:38;101429.84;;;21.73;100.00
18436;BME280;9346;52.006;4.720;2023-07-20T12:03:06;101430.03;;;21.60;100.00
18436;BME280;9346;52.006;4.720;2023-07-20T12:05:33;101430.03;;;21.60;100.00
18436;BME280;9346;52.006;4.720;2023-07-20T12:08:00;101423.91;;;21.66;100.00
18436;BME280;9346;52.006;4.720;2023-07-20T12:10:29;101421.44;;;21.65;100.00
18436;BME280;9346;52.006;4.720;2023-07-20T12:13:01;101426.91;;;21.61;100.00
18436;BME280;9346;52.006;4.720;2023-07-20T12:15:31;101422.28;;;21.57;100.00
18436;BME280;9346;52.006;4.720;2023-07-20T12:17:59;101421.81;;;21.46;100.00
18436;BME280;9346;52.006;4.720;2023-07-20T12:20:28;101422.50;;;21.35;100.00
18436;BME280;9346;52.006;4.720;2023-07-20T12:22:59;101418.88;;;21.26;100.00
18436;BME280;9346;52.006;4.720;2023-07-20T12:25:34;101422.66;;;21.21;100.00
18436;BME280;9346;52.006;4.720;2023-07-20T12:28:04;101417.91;;;21.22;100.00
18436;BME280;9346;52.006;4.720;2023-07-20T12:30:33;101415.75;;;21.27;100.00
18436;BME280;9346;52.006;4.720;2023-07-20T12:33:01;101406.53;;;21.35;100.00
18436;BME280;9346;52.006;4.720;2023-07-20T12:35:29;101414.72;;;21.40;100.00
18436;BME280;9346;52.006;4.720;2023-07-20T12:37:56;101412.44;;;21.42;100.00
18436;BME280;9346;52.006;4.720;2023-07-20T12:40:24;101409.94;;;21.49;100.00
18436;BME280;9346;52.006;4.720;2023-07-20T12:42:53;101416.69;;;21.57;100.00
18436;BME280;9346;52.006;4.720;2023-07-20T12:45:20;101409.91;;;21.58;100.00
18436;BME280;9346;52.006;4.720;2023-07-20T12:47:49;101410.06;;;21.61;100.00
18436;BME280;9346;52.006;4.720;2023-07-20T12:50:16;101405.59;;;21.69;100.00
18436;BME280;9346;52.006;4.720;2023-07-20T12:52:43;101405.28;;;21.79;100.00
18436;BME280;9346;52.006;4.720;2023-07-20T12:55:11;101404.91;;;21.89;100.00
18436;BME280;9346;52.006;4.720;2023-07-20T12:57:38;101399.72;;;21.99;100.00
18436;BME280;9346;52.006;4.720;2023-07-20T13:00:08;101391.97;;;22.05;100.00
18436;BME280;9346;52.006;4.720;2023-07-20T13:02:35;101403.31;;;22.09;100.00
18436;BME280;9346;52.006;4.720;2023-07-20T13:05:05;101392.09;;;22.09;100.00
18436;BME280;9346;52.006;4.720;2023-07-20T13:07:33;101392.25;;;22.12;100.00